Airfield :
LOGIN :

Register | Disclaimer

   EN    FR    IT 

 










Legend :    VFR   Marginal VFR   IFR   Intensive IFR   Very Intensive IFR
Visi :
Ceiling :
>= 8 km
>= 3000ft
5 to 8 km
1000 to 3000 ft
1500m to 5 km
500 to 1000 ft
800 to 1500m
200 to 500 ft
< 800m
< 200 ft
Symbols :   Thunderstorms  Fog  Heavy snow  Heavy precipitations  Wind > 20 kt
SIGMETs :     Misc.  Thunderstorms  Icing  Turbulence  Mountain Waves  Volcanic Ashes






- Airport Elevation : 17 ft
- IATA code : GRQ


EHGG - Groningen Eelde

CURRENT METAR :
  • 091025Z AUTO 23009KT 9999 SCT014 06/04 Q0994 TEMPO 7000 -SHRA FEW020CB

EXPIRED METARs :
  • 090955Z AUTO 22007KT 9999 SCT012 BKN014 05/04 Q0994 BECMG SCT020
  • 090925Z AUTO 20008KT 9999 FEW013 SCT017 05/03 Q0993 NOSIG
  • 090855Z AUTO 21007KT 9999 OVC016 06/03 Q0993 TEMPO 7000 -SHRA FEW020CB
  • 090825Z AUTO 22010KT 9999 OVC020 06/03 Q0993 TEMPO 7000 -SHRA FEW020CB
  • 090755Z AUTO 22011KT 190V250 9999 FEW023 05/03 Q0992 TEMPO 7000 -SHRA FEW020CB

TAF TAF EHGG
Valid from the 09 at 06:00 until the 10 at 12:00 UTC


090504Z 0906/1012 21008KT 9999 SCT025
PROB40
TEMPO 0906/0913 24018KT 6000 RA -SHRA BKN014 FEW020CB
BECMG 0912/0914 31015G25KT
PROB40
TEMPO 0913/0915 33025G35KT 4000 SHRA SCT020CB BKN025
BECMG 0920/0922 31010KT
BECMG 1003/1006 23005KT
BECMG 1010/1012 20013KT



MET'MAP, your aeronautical weather chart ! - Copyright ORBIFLY December 2007 - Disclaimer

ORBIFLY MET'MAP TEAM :

Programming & Development : Alexandra Zaïnal
Concept & original design : Baudouin d'Aumeries
Assistance for programming : Marc-Olivier Méhu
Technical & hardware support : Manuel Goepfert

Contact : metmap@orbifly.com




SOURCES & CREDITS :

   NOAA